sensor_id;sensor_type;location;lat;lon;timestamp;P1;durP1;ratioP1;P2;durP2;ratioP2
46845;SDS011;33947;46.804;134.252;2022-08-19T00:02:59;5.35;;;3.53;;
46845;SDS011;33947;46.804;134.252;2022-08-19T00:06:04;6.35;;;3.80;;
46845;SDS011;33947;46.804;134.252;2022-08-19T00:09:10;8.40;;;3.92;;
46845;SDS011;33947;46.804;134.252;2022-08-19T00:12:18;9.70;;;3.83;;
46845;SDS011;33947;46.804;134.252;2022-08-19T00:15:22;10.93;;;3.60;;
46845;SDS011;33947;46.804;134.252;2022-08-19T00:18:27;4.57;;;3.67;;
46845;SDS011;33947;46.804;134.252;2022-08-19T00:21:32;7.85;;;3.67;;
46845;SDS011;33947;46.804;134.252;2022-08-19T00:24:43;14.93;;;3.83;;
46845;SDS011;33947;46.804;134.252;2022-08-19T00:27:52;10.77;;;3.50;;
46845;SDS011;33947;46.804;134.252;2022-08-19T00:30:57;10.93;;;4.43;;
46845;SDS011;33947;46.804;134.252;2022-08-19T00:34:02;8.00;;;3.63;;
46845;SDS011;33947;46.804;134.252;2022-08-19T00:37:07;11.80;;;3.28;;
46845;SDS011;33947;46.804;134.252;2022-08-19T00:40:12;8.50;;;3.65;;
46845;SDS011;33947;46.804;134.252;2022-08-19T00:43:21;7.50;;;4.15;;
46845;SDS011;33947;46.804;134.252;2022-08-19T00:46:27;11.30;;;4.03;;
46845;SDS011;33947;46.804;134.252;2022-08-19T00:49:34;6.00;;;3.75;;
46845;SDS011;33947;46.804;134.252;2022-08-19T00:52:42;10.48;;;4.10;;
46845;SDS011;33947;46.804;134.252;2022-08-19T00:55:50;6.68;;;3.50;;
46845;SDS011;33947;46.804;134.252;2022-08-19T00:58:57;5.60;;;3.50;;
46845;SDS011;33947;46.804;134.252;2022-08-19T01:02:03;6.63;;;3.38;;
46845;SDS011;33947;46.804;134.252;2022-08-19T01:05:14;8.23;;;3.45;;
46845;SDS011;33947;46.804;134.252;2022-08-19T01:08:23;9.13;;;4.65;;
46845;SDS011;33947;46.804;134.252;2022-08-19T01:11:28;12.27;;;4.93;;
46845;SDS011;33947;46.804;134.252;2022-08-19T01:14:36;8.20;;;4.03;;
46845;SDS011;33947;46.804;134.252;2022-08-19T01:17:42;10.55;;;4.25;;
46845;SDS011;33947;46.804;134.252;2022-08-19T01:20:48;8.88;;;3.97;;
46845;SDS011;33947;46.804;134.252;2022-08-19T01:23:54;14.30;;;4.22;;
46845;SDS011;33947;46.804;134.252;2022-08-19T01:26:59;11.43;;;4.65;;
46845;SDS011;33947;46.804;134.252;2022-08-19T01:30:04;8.27;;;3.90;;
46845;SDS011;33947;46.804;134.252;2022-08-19T01:33:12;13.65;;;5.90;;
46845;SDS011;33947;46.804;134.252;2022-08-19T01:36:26;11.32;;;4.20;;
46845;SDS011;33947;46.804;134.252;2022-08-19T01:39:30;11.27;;;3.70;;
46845;SDS011;33947;46.804;134.252;2022-08-19T01:42:35;14.32;;;4.18;;
46845;SDS011;33947;46.804;134.252;2022-08-19T01:45:40;20.63;;;7.43;;
46845;SDS011;33947;46.804;134.252;2022-08-19T01:51:49;19.45;;;9.98;;
46845;SDS011;33947;46.804;134.252;2022-08-19T01:54:55;15.55;;;6.72;;
46845;SDS011;33947;46.804;134.252;2022-08-19T01:58:00;19.55;;;5.63;;
46845;SDS011;33947;46.804;134.252;2022-08-19T02:01:09;16.70;;;7.20;;
46845;SDS011;33947;46.804;134.252;2022-08-19T02:04:14;14.27;;;6.32;;
46845;SDS011;33947;46.804;134.252;2022-08-19T02:10:27;23.65;;;8.75;;
46845;SDS011;33947;46.804;134.252;2022-08-19T02:13:31;18.90;;;7.90;;
46845;SDS011;33947;46.804;134.252;2022-08-19T02:16:37;13.93;;;4.18;;
46845;SDS011;33947;46.804;134.252;2022-08-19T02:19:43;16.27;;;5.35;;
46845;SDS011;33947;46.804;134.252;2022-08-19T02:22:48;12.43;;;4.28;;
46845;SDS011;33947;46.804;134.252;2022-08-19T02:25:52;14.98;;;5.20;;
46845;SDS011;33947;46.804;134.252;2022-08-19T02:28:57;12.75;;;4.90;;
46845;SDS011;33947;46.804;134.252;2022-08-19T02:32:02;11.57;;;5.15;;
46845;SDS011;33947;46.804;134.252;2022-08-19T02:35:07;8.52;;;4.30;;
46845;SDS011;33947;46.804;134.252;2022-08-19T02:38:14;6.82;;;4.50;;
46845;SDS011;33947;46.804;134.252;2022-08-19T02:41:32;9.57;;;3.95;;
46845;SDS011;33947;46.804;134.252;2022-08-19T02:44:38;5.32;;;3.83;;
46845;SDS011;33947;46.804;134.252;2022-08-19T02:47:43;4.95;;;3.72;;
46845;SDS011;33947;46.804;134.252;2022-08-19T02:50:49;9.73;;;4.05;;
46845;SDS011;33947;46.804;134.252;2022-08-19T02:54:02;6.20;;;3.55;;
46845;SDS011;33947;46.804;134.252;2022-08-19T02:57:07;5.63;;;3.97;;
46845;SDS011;33947;46.804;134.252;2022-08-19T03:00:12;8.30;;;3.70;;
46845;SDS011;33947;46.804;134.252;2022-08-19T03:03:17;10.43;;;3.60;;
46845;SDS011;33947;46.804;134.252;2022-08-19T03:06:23;5.97;;;3.72;;
46845;SDS011;33947;46.804;134.252;2022-08-19T03:09:28;5.07;;;4.00;;
46845;SDS011;33947;46.804;134.252;2022-08-19T03:12:36;5.85;;;3.90;;
46845;SDS011;33947;46.804;134.252;2022-08-19T03:15:44;5.28;;;3.92;;
46845;SDS011;33947;46.804;134.252;2022-08-19T03:18:51;5.90;;;3.70;;
46845;SDS011;33947;46.804;134.252;2022-08-19T03:21:57;5.75;;;4.10;;
46845;SDS011;33947;46.804;134.252;2022-08-19T03:25:02;5.40;;;4.32;;
46845;SDS011;33947;46.804;134.252;2022-08-19T03:28:07;6.13;;;4.43;;
46845;SDS011;33947;46.804;134.252;2022-08-19T03:31:13;6.20;;;4.45;;
46845;SDS011;33947;46.804;134.252;2022-08-19T03:34:38;6.38;;;3.88;;
46845;SDS011;33947;46.804;134.252;2022-08-19T03:37:43;8.80;;;4.65;;
46845;SDS011;33947;46.804;134.252;2022-08-19T03:40:48;12.30;;;5.20;;
46845;SDS011;33947;46.804;134.252;2022-08-19T03:43:53;7.25;;;4.45;;
46845;SDS011;33947;46.804;134.252;2022-08-19T03:46:59;5.53;;;4.25;;
46845;SDS011;33947;46.804;134.252;2022-08-19T03:53:08;5.93;;;4.63;;
46845;SDS011;33947;46.804;134.252;2022-08-19T03:56:14;12.30;;;4.50;;
46845;SDS011;33947;46.804;134.252;2022-08-19T03:59:26;8.52;;;4.50;;
46845;SDS011;33947;46.804;134.252;2022-08-19T04:02:33;6.90;;;4.22;;
46845;SDS011;33947;46.804;134.252;2022-08-19T04:05:37;8.93;;;4.30;;
46845;SDS011;33947;46.804;134.252;2022-08-19T04:08:43;7.07;;;4.15;;
46845;SDS011;33947;46.804;134.252;2022-08-19T04:11:51;48.10;;;7.05;;
46845;SDS011;33947;46.804;134.252;2022-08-19T04:14:59;6.47;;;4.10;;
46845;SDS011;33947;46.804;134.252;2022-08-19T04:18:04;7.70;;;3.72;;
46845;SDS011;33947;46.804;134.252;2022-08-19T04:21:15;7.20;;;3.70;;
46845;SDS011;33947;46.804;134.252;2022-08-19T04:24:22;5.97;;;3.95;;
46845;SDS011;33947;46.804;134.252;2022-08-19T04:27:27;6.53;;;3.70;;
46845;SDS011;33947;46.804;134.252;2022-08-19T04:30:36;14.98;;;4.60;;
46845;SDS011;33947;46.804;134.252;2022-08-19T04:33:46;17.25;;;4.70;;
46845;SDS011;33947;46.804;134.252;2022-08-19T04:36:51;5.80;;;4.28;;
46845;SDS011;33947;46.804;134.252;2022-08-19T04:39:57;15.52;;;4.88;;
46845;SDS011;33947;46.804;134.252;2022-08-19T04:43:20;15.20;;;4.32;;
46845;SDS011;33947;46.804;134.252;2022-08-19T04:46:26;8.27;;;4.65;;
46845;SDS011;33947;46.804;134.252;2022-08-19T04:52:46;5.57;;;4.47;;
46845;SDS011;33947;46.804;134.252;2022-08-19T04:55:51;5.53;;;3.88;;
46845;SDS011;33947;46.804;134.252;2022-08-19T04:58:56;9.98;;;4.20;;
46845;SDS011;33947;46.804;134.252;2022-08-19T05:02:02;11.70;;;4.97;;
46845;SDS011;33947;46.804;134.252;2022-08-19T05:05:09;12.45;;;5.53;;
46845;SDS011;33947;46.804;134.252;2022-08-19T05:08:18;9.13;;;4.30;;
46845;SDS011;33947;46.804;134.252;2022-08-19T05:11:34;7.85;;;4.63;;
46845;SDS011;33947;46.804;134.252;2022-08-19T05:18:28;8.90;;;4.57;;
46845;SDS011;33947;46.804;134.252;2022-08-19T05:21:52;35.55;;;8.10;;
46845;SDS011;33947;46.804;134.252;2022-08-19T05:25:18;18.45;;;5.05;;
46845;SDS011;33947;46.804;134.252;2022-08-19T05:28:24;11.45;;;5.85;;
46845;SDS011;33947;46.804;134.252;2022-08-19T05:34:35;8.20;;;5.10;;
46845;SDS011;33947;46.804;134.252;2022-08-19T05:41:31;13.82;;;4.95;;
46845;SDS011;33947;46.804;134.252;2022-08-19T05:48:06;12.68;;;6.43;;
46845;SDS011;33947;46.804;134.252;2022-08-19T05:51:11;15.57;;;5.88;;
46845;SDS011;33947;46.804;134.252;2022-08-19T05:58:06;7.72;;;4.57;;
46845;SDS011;33947;46.804;134.252;2022-08-19T06:01:13;9.13;;;4.07;;
46845;SDS011;33947;46.804;134.252;2022-08-19T06:08:06;9.98;;;4.28;;
46845;SDS011;33947;46.804;134.252;2022-08-19T06:14:45;12.48;;;4.53;;
46845;SDS011;33947;46.804;134.252;2022-08-19T06:18:04;6.97;;;3.88;;
46845;SDS011;33947;46.804;134.252;2022-08-19T06:24:40;9.73;;;4.32;;
46845;SDS011;33947;46.804;134.252;2022-08-19T06:27:45;18.23;;;5.53;;
46845;SDS011;33947;46.804;134.252;2022-08-19T06:31:05;9.48;;;4.85;;
46845;SDS011;33947;46.804;134.252;2022-08-19T06:34:10;11.20;;;4.43;;
46845;SDS011;33947;46.804;134.252;2022-08-19T06:37:15;13.27;;;4.95;;
46845;SDS011;33947;46.804;134.252;2022-08-19T06:43:51;7.05;;;4.40;;
46845;SDS011;33947;46.804;134.252;2022-08-19T06:46:58;8.20;;;4.90;;
46845;SDS011;33947;46.804;134.252;2022-08-19T06:50:16;5.57;;;4.22;;
46845;SDS011;33947;46.804;134.252;2022-08-19T06:53:21;11.00;;;4.85;;
46845;SDS011;33947;46.804;134.252;2022-08-19T06:56:27;6.55;;;4.90;;
46845;SDS011;33947;46.804;134.252;2022-08-19T07:03:11;9.55;;;5.68;;
46845;SDS011;33947;46.804;134.252;2022-08-19T07:06:16;7.32;;;4.63;;
46845;SDS011;33947;46.804;134.252;2022-08-19T07:09:37;6.28;;;4.63;;
46845;SDS011;33947;46.804;134.252;2022-08-19T08:28:07;34.92;;;19.00;;
46845;SDS011;33947;46.804;134.252;2022-08-19T08:31:22;36.67;;;21.67;;
46845;SDS011;33947;46.804;134.252;2022-08-19T08:34:30;20.10;;;12.00;;
46845;SDS011;33947;46.804;134.252;2022-08-19T08:37:49;16.55;;;9.68;;
46845;SDS011;33947;46.804;134.252;2022-08-19T08:48:17;10.07;;;4.55;;
46845;SDS011;33947;46.804;134.252;2022-08-19T08:51:28;11.32;;;5.68;;
46845;SDS011;33947;46.804;134.252;2022-08-19T08:54:50;8.68;;;5.30;;
46845;SDS011;33947;46.804;134.252;2022-08-19T08:58:03;13.95;;;5.60;;
46845;SDS011;33947;46.804;134.252;2022-08-19T09:01:12;12.85;;;6.20;;
46845;SDS011;33947;46.804;134.252;2022-08-19T09:04:18;13.85;;;6.18;;
46845;SDS011;33947;46.804;134.252;2022-08-19T09:17:58;23.88;;;10.70;;
46845;SDS011;33947;46.804;134.252;2022-08-19T09:21:09;19.23;;;6.95;;
46845;SDS011;33947;46.804;134.252;2022-08-19T09:31:25;17.33;;;8.30;;
46845;SDS011;33947;46.804;134.252;2022-08-19T09:34:35;17.40;;;7.90;;
46845;SDS011;33947;46.804;134.252;2022-08-19T09:44:50;11.70;;;5.30;;
46845;SDS011;33947;46.804;134.252;2022-08-19T09:55:00;12.52;;;5.30;;
46845;SDS011;33947;46.804;134.252;2022-08-19T09:58:09;8.35;;;5.35;;
46845;SDS011;33947;46.804;134.252;2022-08-19T10:01:24;12.18;;;5.03;;
46845;SDS011;33947;46.804;134.252;2022-08-19T10:04:30;9.27;;;5.60;;
46845;SDS011;33947;46.804;134.252;2022-08-19T10:07:52;24.67;;;5.32;;
46845;SDS011;33947;46.804;134.252;2022-08-19T10:10:58;12.68;;;5.30;;
46845;SDS011;33947;46.804;134.252;2022-08-19T10:14:24;9.90;;;5.65;;
46845;SDS011;33947;46.804;134.252;2022-08-19T10:17:31;13.60;;;5.97;;
46845;SDS011;33947;46.804;134.252;2022-08-19T10:21:19;9.52;;;5.28;;
46845;SDS011;33947;46.804;134.252;2022-08-19T10:39:23;7.85;;;5.35;;
46845;SDS011;33947;46.804;134.252;2022-08-19T10:42:34;9.43;;;4.70;;
46845;SDS011;33947;46.804;134.252;2022-08-19T10:45:39;8.10;;;5.13;;
46845;SDS011;33947;46.804;134.252;2022-08-19T10:48:54;6.50;;;4.50;;
46845;SDS011;33947;46.804;134.252;2022-08-19T10:51:59;4.97;;;4.30;;
46845;SDS011;33947;46.804;134.252;2022-08-19T10:55:29;6.90;;;3.70;;
46845;SDS011;33947;46.804;134.252;2022-08-19T10:58:52;5.22;;;3.25;;
46845;SDS011;33947;46.804;134.252;2022-08-19T11:02:00;7.57;;;3.70;;
46845;SDS011;33947;46.804;134.252;2022-08-19T11:05:06;4.97;;;3.63;;
46845;SDS011;33947;46.804;134.252;2022-08-19T11:08:15;6.00;;;3.50;;
46845;SDS011;33947;46.804;134.252;2022-08-19T11:11:26;6.57;;;3.80;;
46845;SDS011;33947;46.804;134.252;2022-08-19T11:14:32;9.32;;;4.50;;
46845;SDS011;33947;46.804;134.252;2022-08-19T11:17:38;8.20;;;4.75;;
46845;SDS011;33947;46.804;134.252;2022-08-19T11:20:47;7.35;;;5.13;;
46845;SDS011;33947;46.804;134.252;2022-08-19T11:23:53;7.80;;;5.82;;
46845;SDS011;33947;46.804;134.252;2022-08-19T11:27:01;7.43;;;5.10;;
46845;SDS011;33947;46.804;134.252;2022-08-19T11:30:12;11.02;;;4.65;;
46845;SDS011;33947;46.804;134.252;2022-08-19T11:33:19;8.05;;;4.90;;
46845;SDS011;33947;46.804;134.252;2022-08-19T11:36:24;7.22;;;4.00;;
46845;SDS011;33947;46.804;134.252;2022-08-19T11:39:30;8.73;;;4.90;;
46845;SDS011;33947;46.804;134.252;2022-08-19T11:42:36;8.07;;;4.35;;
46845;SDS011;33947;46.804;134.252;2022-08-19T11:46:03;5.15;;;4.13;;
46845;SDS011;33947;46.804;134.252;2022-08-19T11:49:10;16.15;;;4.18;;
46845;SDS011;33947;46.804;134.252;2022-08-19T11:52:15;12.57;;;4.88;;
46845;SDS011;33947;46.804;134.252;2022-08-19T11:55:20;13.43;;;6.10;;
46845;SDS011;33947;46.804;134.252;2022-08-19T11:58:26;5.28;;;4.30;;
46845;SDS011;33947;46.804;134.252;2022-08-19T12:01:30;7.75;;;5.20;;
46845;SDS011;33947;46.804;134.252;2022-08-19T12:04:35;6.25;;;4.10;;
46845;SDS011;33947;46.804;134.252;2022-08-19T12:07:40;5.03;;;4.17;;
46845;SDS011;33947;46.804;134.252;2022-08-19T12:10:46;5.57;;;3.97;;
46845;SDS011;33947;46.804;134.252;2022-08-19T12:13:51;7.07;;;4.47;;
46845;SDS011;33947;46.804;134.252;2022-08-19T12:16:57;4.68;;;3.55;;
46845;SDS011;33947;46.804;134.252;2022-08-19T12:20:02;7.80;;;3.97;;
46845;SDS011;33947;46.804;134.252;2022-08-19T12:23:21;8.23;;;3.80;;
46845;SDS011;33947;46.804;134.252;2022-08-19T12:26:27;13.30;;;3.95;;
46845;SDS011;33947;46.804;134.252;2022-08-19T12:29:37;9.98;;;3.20;;
46845;SDS011;33947;46.804;134.252;2022-08-19T12:32:42;4.65;;;2.95;;
46845;SDS011;33947;46.804;134.252;2022-08-19T12:35:47;5.65;;;2.85;;
46845;SDS011;33947;46.804;134.252;2022-08-19T12:38:52;3.45;;;2.35;;
46845;SDS011;33947;46.804;134.252;2022-08-19T12:41:57;3.22;;;2.50;;
46845;SDS011;33947;46.804;134.252;2022-08-19T12:45:01;3.08;;;2.20;;
46845;SDS011;33947;46.804;134.252;2022-08-19T12:48:10;4.38;;;2.72;;
46845;SDS011;33947;46.804;134.252;2022-08-19T12:51:36;4.60;;;2.45;;
46845;SDS011;33947;46.804;134.252;2022-08-19T13:02:07;7.22;;;2.15;;
46845;SDS011;33947;46.804;134.252;2022-08-19T13:05:16;10.35;;;1.92;;
46845;SDS011;33947;46.804;134.252;2022-08-19T13:09:03;2.13;;;0.85;;
46845;SDS011;33947;46.804;134.252;2022-08-19T13:12:12;2.25;;;0.80;;
46845;SDS011;33947;46.804;134.252;2022-08-19T13:18:26;13.93;;;0.98;;
46845;SDS011;33947;46.804;134.252;2022-08-19T13:21:30;6.43;;;0.80;;
46845;SDS011;33947;46.804;134.252;2022-08-19T13:24:35;0.98;;;0.57;;
46845;SDS011;33947;46.804;134.252;2022-08-19T13:27:40;2.90;;;0.60;;
46845;SDS011;33947;46.804;134.252;2022-08-19T13:30:46;0.40;;;0.30;;
46845;SDS011;33947;46.804;134.252;2022-08-19T13:34:10;4.82;;;0.93;;
46845;SDS011;33947;46.804;134.252;2022-08-19T13:37:15;2.80;;;0.60;;
46845;SDS011;33947;46.804;134.252;2022-08-19T13:40:39;2.38;;;0.57;;
46845;SDS011;33947;46.804;134.252;2022-08-19T13:43:44;1.35;;;0.40;;
46845;SDS011;33947;46.804;134.252;2022-08-19T13:46:49;2.78;;;0.40;;
46845;SDS011;33947;46.804;134.252;2022-08-19T13:49:56;4.00;;;0.50;;
46845;SDS011;33947;46.804;134.252;2022-08-19T13:53:01;2.90;;;0.53;;
46845;SDS011;33947;46.804;134.252;2022-08-19T13:56:06;2.20;;;0.40;;
46845;SDS011;33947;46.804;134.252;2022-08-19T13:59:11;0.45;;;0.43;;
46845;SDS011;33947;46.804;134.252;2022-08-19T14:02:16;0.40;;;0.40;;
46845;SDS011;33947;46.804;134.252;2022-08-19T14:05:23;1.20;;;0.57;;
46845;SDS011;33947;46.804;134.252;2022-08-19T14:08:29;1.27;;;0.38;;
46845;SDS011;33947;46.804;134.252;2022-08-19T14:11:35;0.35;;;0.35;;
46845;SDS011;33947;46.804;134.252;2022-08-19T14:14:40;3.65;;;0.52;;
46845;SDS011;33947;46.804;134.252;2022-08-19T14:17:45;1.13;;;0.60;;
46845;SDS011;33947;46.804;134.252;2022-08-19T14:20:52;1.60;;;0.60;;
46845;SDS011;33947;46.804;134.252;2022-08-19T14:23:57;0.68;;;0.40;;
46845;SDS011;33947;46.804;134.252;2022-08-19T14:27:02;3.53;;;0.73;;
46845;SDS011;33947;46.804;134.252;2022-08-19T14:30:08;0.57;;;0.57;;
46845;SDS011;33947;46.804;134.252;2022-08-19T14:33:15;0.93;;;0.50;;
46845;SDS011;33947;46.804;134.252;2022-08-19T14:36:19;2.42;;;0.68;;
46845;SDS011;33947;46.804;134.252;2022-08-19T14:39:25;1.45;;;0.50;;
46845;SDS011;33947;46.804;134.252;2022-08-19T14:42:30;0.68;;;0.68;;
46845;SDS011;33947;46.804;134.252;2022-08-19T14:45:35;0.63;;;0.60;;
46845;SDS011;33947;46.804;134.252;2022-08-19T14:48:43;0.60;;;0.60;;
46845;SDS011;33947;46.804;134.252;2022-08-19T14:51:52;1.60;;;0.70;;
46845;SDS011;33947;46.804;134.252;2022-08-19T14:54:57;0.70;;;0.70;;
46845;SDS011;33947;46.804;134.252;2022-08-19T14:58:04;2.42;;;0.73;;
46845;SDS011;33947;46.804;134.252;2022-08-19T15:01:11;1.77;;;0.90;;
46845;SDS011;33947;46.804;134.252;2022-08-19T15:04:16;1.15;;;0.85;;
46845;SDS011;33947;46.804;134.252;2022-08-19T15:07:21;4.72;;;0.95;;
46845;SDS011;33947;46.804;134.252;2022-08-19T15:10:30;1.88;;;1.00;;
46845;SDS011;33947;46.804;134.252;2022-08-19T15:13:35;1.95;;;0.82;;
46845;SDS011;33947;46.804;134.252;2022-08-19T15:16:40;1.87;;;1.00;;
46845;SDS011;33947;46.804;134.252;2022-08-19T15:22:50;1.48;;;0.77;;
46845;SDS011;33947;46.804;134.252;2022-08-19T15:25:54;1.00;;;0.83;;
46845;SDS011;33947;46.804;134.252;2022-08-19T15:29:00;2.85;;;0.88;;
46845;SDS011;33947;46.804;134.252;2022-08-19T15:32:06;2.25;;;1.02;;
46845;SDS011;33947;46.804;134.252;2022-08-19T15:35:12;1.58;;;0.90;;
46845;SDS011;33947;46.804;134.252;2022-08-19T15:41:28;1.48;;;1.00;;
46845;SDS011;33947;46.804;134.252;2022-08-19T15:44:33;2.45;;;1.30;;
46845;SDS011;33947;46.804;134.252;2022-08-19T15:47:38;4.50;;;0.98;;
46845;SDS011;33947;46.804;134.252;2022-08-19T15:50:44;3.95;;;1.10;;
46845;SDS011;33947;46.804;134.252;2022-08-19T15:53:49;1.10;;;0.95;;
46845;SDS011;33947;46.804;134.252;2022-08-19T15:56:54;8.45;;;1.20;;
46845;SDS011;33947;46.804;134.252;2022-08-19T16:00:18;4.57;;;0.88;;
46845;SDS011;33947;46.804;134.252;2022-08-19T16:03:41;1.25;;;0.90;;
46845;SDS011;33947;46.804;134.252;2022-08-19T16:07:05;1.73;;;0.65;;
46845;SDS011;33947;46.804;134.252;2022-08-19T16:10:11;1.65;;;0.80;;
46845;SDS011;33947;46.804;134.252;2022-08-19T16:13:29;3.45;;;0.93;;
46845;SDS011;33947;46.804;134.252;2022-08-19T16:16:35;2.38;;;0.90;;
46845;SDS011;33947;46.804;134.252;2022-08-19T16:19:41;0.82;;;0.80;;
46845;SDS011;33947;46.804;134.252;2022-08-19T16:22:45;1.77;;;0.88;;
46845;SDS011;33947;46.804;134.252;2022-08-19T16:25:50;1.80;;;1.27;;
46845;SDS011;33947;46.804;134.252;2022-08-19T16:28:55;0.75;;;0.75;;
46845;SDS011;33947;46.804;134.252;2022-08-19T16:32:05;2.85;;;0.93;;
46845;SDS011;33947;46.804;134.252;2022-08-19T16:35:15;1.75;;;0.70;;
46845;SDS011;33947;46.804;134.252;2022-08-19T16:38:19;0.73;;;0.60;;
46845;SDS011;33947;46.804;134.252;2022-08-19T16:41:25;3.10;;;0.63;;
46845;SDS011;33947;46.804;134.252;2022-08-19T16:44:30;0.63;;;0.60;;
46845;SDS011;33947;46.804;134.252;2022-08-19T16:47:35;2.75;;;0.70;;
46845;SDS011;33947;46.804;134.252;2022-08-19T16:50:40;2.10;;;0.90;;
46845;SDS011;33947;46.804;134.252;2022-08-19T16:53:51;2.45;;;0.70;;
46845;SDS011;33947;46.804;134.252;2022-08-19T16:56:56;2.38;;;0.80;;
46845;SDS011;33947;46.804;134.252;2022-08-19T17:00:01;5.97;;;0.80;;
46845;SDS011;33947;46.804;134.252;2022-08-19T17:03:12;0.98;;;0.80;;
46845;SDS011;33947;46.804;134.252;2022-08-19T17:06:18;3.58;;;0.85;;
46845;SDS011;33947;46.804;134.252;2022-08-19T17:09:24;2.00;;;1.15;;
46845;SDS011;33947;46.804;134.252;2022-08-19T17:12:34;1.25;;;0.68;;
46845;SDS011;33947;46.804;134.252;2022-08-19T17:15:40;0.85;;;0.60;;
46845;SDS011;33947;46.804;134.252;2022-08-19T17:18:45;0.50;;;0.50;;
46845;SDS011;33947;46.804;134.252;2022-08-19T17:21:55;2.55;;;0.80;;
46845;SDS011;33947;46.804;134.252;2022-08-19T17:25:00;0.85;;;0.63;;
46845;SDS011;33947;46.804;134.252;2022-08-19T17:28:08;4.10;;;1.10;;
46845;SDS011;33947;46.804;134.252;2022-08-19T17:31:16;3.25;;;1.10;;
46845;SDS011;33947;46.804;134.252;2022-08-19T17:34:22;1.15;;;0.90;;
46845;SDS011;33947;46.804;134.252;2022-08-19T17:37:27;8.20;;;1.15;;
46845;SDS011;33947;46.804;134.252;2022-08-19T17:40:32;1.47;;;0.70;;
46845;SDS011;33947;46.804;134.252;2022-08-19T17:43:38;4.90;;;0.98;;
46845;SDS011;33947;46.804;134.252;2022-08-19T17:46:45;3.33;;;1.10;;
46845;SDS011;33947;46.804;134.252;2022-08-19T17:49:50;1.33;;;0.80;;
46845;SDS011;33947;46.804;134.252;2022-08-19T17:52:55;3.72;;;1.30;;
46845;SDS011;33947;46.804;134.252;2022-08-19T17:56:00;2.35;;;0.90;;
46845;SDS011;33947;46.804;134.252;2022-08-19T17:59:06;3.95;;;0.93;;
46845;SDS011;33947;46.804;134.252;2022-08-19T18:02:15;2.55;;;1.02;;
46845;SDS011;33947;46.804;134.252;2022-08-19T18:05:25;1.65;;;1.10;;
46845;SDS011;33947;46.804;134.252;2022-08-19T18:08:35;3.65;;;1.23;;
46845;SDS011;33947;46.804;134.252;2022-08-19T18:11:43;7.18;;;1.50;;
46845;SDS011;33947;46.804;134.252;2022-08-19T18:14:54;2.70;;;1.35;;
46845;SDS011;33947;46.804;134.252;2022-08-19T18:18:01;2.22;;;1.50;;
46845;SDS011;33947;46.804;134.252;2022-08-19T18:21:16;1.90;;;1.50;;
46845;SDS011;33947;46.804;134.252;2022-08-19T18:24:21;3.97;;;1.40;;
46845;SDS011;33947;46.804;134.252;2022-08-19T18:27:26;2.17;;;1.67;;
46845;SDS011;33947;46.804;134.252;2022-08-19T18:30:31;2.13;;;1.60;;
46845;SDS011;33947;46.804;134.252;2022-08-19T18:33:37;1.73;;;1.20;;
46845;SDS011;33947;46.804;134.252;2022-08-19T18:36:46;4.22;;;1.50;;
46845;SDS011;33947;46.804;134.252;2022-08-19T18:39:56;3.45;;;1.85;;
46845;SDS011;33947;46.804;134.252;2022-08-19T18:43:19;6.57;;;1.50;;
46845;SDS011;33947;46.804;134.252;2022-08-19T18:46:30;5.53;;;1.77;;
46845;SDS011;33947;46.804;134.252;2022-08-19T18:49:55;5.70;;;1.92;;
46845;SDS011;33947;46.804;134.252;2022-08-19T18:52:59;3.28;;;2.00;;
46845;SDS011;33947;46.804;134.252;2022-08-19T18:56:04;2.67;;;2.10;;
46845;SDS011;33947;46.804;134.252;2022-08-19T18:59:10;3.42;;;1.65;;
46845;SDS011;33947;46.804;134.252;2022-08-19T19:02:16;3.33;;;1.73;;
46845;SDS011;33947;46.804;134.252;2022-08-19T19:05:22;3.00;;;1.70;;
46845;SDS011;33947;46.804;134.252;2022-08-19T19:08:28;2.40;;;1.60;;
46845;SDS011;33947;46.804;134.252;2022-08-19T19:11:34;7.28;;;2.22;;
46845;SDS011;33947;46.804;134.252;2022-08-19T19:14:41;5.05;;;1.60;;
46845;SDS011;33947;46.804;134.252;2022-08-19T19:17:51;6.57;;;1.90;;
46845;SDS011;33947;46.804;134.252;2022-08-19T19:20:57;1.92;;;1.60;;
46845;SDS011;33947;46.804;134.252;2022-08-19T19:24:02;2.00;;;1.60;;
46845;SDS011;33947;46.804;134.252;2022-08-19T19:27:07;7.97;;;2.13;;
46845;SDS011;33947;46.804;134.252;2022-08-19T19:30:15;2.58;;;1.85;;
46845;SDS011;33947;46.804;134.252;2022-08-19T19:33:20;2.97;;;1.42;;
46845;SDS011;33947;46.804;134.252;2022-08-19T19:36:25;6.13;;;1.30;;
46845;SDS011;33947;46.804;134.252;2022-08-19T19:39:29;5.97;;;1.70;;
46845;SDS011;33947;46.804;134.252;2022-08-19T19:42:48;1.63;;;1.40;;
46845;SDS011;33947;46.804;134.252;2022-08-19T19:45:54;3.17;;;1.60;;
46845;SDS011;33947;46.804;134.252;2022-08-19T19:48:59;4.75;;;1.70;;
46845;SDS011;33947;46.804;134.252;2022-08-19T19:52:04;2.92;;;1.70;;
46845;SDS011;33947;46.804;134.252;2022-08-19T19:55:15;2.88;;;1.52;;
46845;SDS011;33947;46.804;134.252;2022-08-19T19:58:23;2.72;;;1.50;;
46845;SDS011;33947;46.804;134.252;2022-08-19T20:01:32;2.75;;;1.40;;
46845;SDS011;33947;46.804;134.252;2022-08-19T20:04:37;1.88;;;1.50;;
46845;SDS011;33947;46.804;134.252;2022-08-19T20:07:42;2.15;;;1.38;;
46845;SDS011;33947;46.804;134.252;2022-08-19T20:11:05;6.03;;;1.60;;
46845;SDS011;33947;46.804;134.252;2022-08-19T20:17:19;6.25;;;1.65;;
46845;SDS011;33947;46.804;134.252;2022-08-19T20:20:24;7.68;;;1.67;;
46845;SDS011;33947;46.804;134.252;2022-08-19T20:23:28;2.65;;;1.50;;
46845;SDS011;33947;46.804;134.252;2022-08-19T20:26:33;3.22;;;1.48;;
46845;SDS011;33947;46.804;134.252;2022-08-19T20:29:38;5.47;;;1.53;;
46845;SDS011;33947;46.804;134.252;2022-08-19T20:32:47;5.32;;;2.63;;
46845;SDS011;33947;46.804;134.252;2022-08-19T20:35:52;2.97;;;1.73;;
46845;SDS011;33947;46.804;134.252;2022-08-19T20:38:57;2.25;;;1.50;;
46845;SDS011;33947;46.804;134.252;2022-08-19T20:42:02;7.88;;;1.95;;
46845;SDS011;33947;46.804;134.252;2022-08-19T20:45:08;3.15;;;2.13;;
46845;SDS011;33947;46.804;134.252;2022-08-19T20:48:35;10.27;;;1.95;;
46845;SDS011;33947;46.804;134.252;2022-08-19T20:51:41;13.02;;;1.85;;
46845;SDS011;33947;46.804;134.252;2022-08-19T20:54:49;7.57;;;1.85;;
46845;SDS011;33947;46.804;134.252;2022-08-19T20:57:54;4.28;;;1.67;;
46845;SDS011;33947;46.804;134.252;2022-08-19T21:01:00;3.05;;;1.65;;
46845;SDS011;33947;46.804;134.252;2022-08-19T21:04:05;2.70;;;1.80;;
46845;SDS011;33947;46.804;134.252;2022-08-19T21:07:10;8.15;;;1.70;;
46845;SDS011;33947;46.804;134.252;2022-08-19T21:10:14;6.90;;;1.75;;
46845;SDS011;33947;46.804;134.252;2022-08-19T21:16:25;4.57;;;2.05;;
46845;SDS011;33947;46.804;134.252;2022-08-19T21:19:30;8.13;;;2.38;;
46845;SDS011;33947;46.804;134.252;2022-08-19T21:22:35;5.70;;;3.30;;
46845;SDS011;33947;46.804;134.252;2022-08-19T21:25:40;3.03;;;1.63;;
46845;SDS011;33947;46.804;134.252;2022-08-19T21:28:56;2.88;;;1.30;;
46845;SDS011;33947;46.804;134.252;2022-08-19T21:32:01;3.00;;;1.60;;
46845;SDS011;33947;46.804;134.252;2022-08-19T21:35:07;3.50;;;1.70;;
46845;SDS011;33947;46.804;134.252;2022-08-19T21:38:12;2.00;;;1.38;;